createdAt,value
2022-12-26T00:00:06.573Z,12.43
2022-12-26T00:02:34.535Z,11.88
2022-12-26T00:05:09.443Z,12.40
2022-12-26T00:07:37.343Z,12.02
2022-12-26T00:10:11.343Z,12.05
2022-12-26T00:12:42.387Z,11.95
2022-12-26T00:15:20.374Z,11.13
2022-12-26T00:17:50.956Z,11.35
2022-12-26T00:20:25.524Z,12.45
2022-12-26T00:22:59.430Z,12.30
2022-12-26T00:25:27.638Z,12.35
2022-12-26T00:28:04.714Z,12.80
2022-12-26T00:30:32.182Z,12.07
2022-12-26T00:35:47.431Z,12.70
2022-12-26T00:38:21.825Z,13.57
2022-12-26T00:40:49.484Z,12.40
2022-12-26T00:43:25.653Z,14.25
2022-12-26T00:45:56.647Z,14.00
2022-12-26T00:48:31.600Z,14.77
2022-12-26T00:51:06.538Z,14.05
2022-12-26T00:53:47.538Z,16.40
2022-12-26T00:56:16.292Z,16.80
2022-12-26T00:58:50.514Z,14.57
2022-12-26T01:01:24.366Z,16.17
2022-12-26T01:03:59.533Z,14.43
2022-12-26T01:06:36.256Z,15.18
2022-12-26T01:09:13.417Z,16.15
2022-12-26T01:11:41.122Z,14.75
2022-12-26T01:14:21.365Z,16.50
2022-12-26T01:16:58.980Z,15.48
2022-12-26T01:19:36.141Z,14.65
2022-12-26T01:22:06.784Z,16.20
2022-12-26T01:24:43.401Z,16.55
2022-12-26T01:27:17.759Z,16.00
2022-12-26T01:29:51.303Z,16.60
2022-12-26T01:32:35.750Z,15.68
2022-12-26T01:35:14.811Z,16.73
2022-12-26T01:37:49.496Z,16.95
2022-12-26T01:40:16.931Z,16.77
2022-12-26T01:42:50.321Z,15.57
2022-12-26T01:45:32.657Z,16.05
2022-12-26T01:48:11.442Z,16.80
2022-12-26T01:51:03.790Z,15.98
2022-12-26T01:53:48.335Z,16.48
2022-12-26T01:56:31.254Z,16.23
2022-12-26T01:59:42.428Z,16.60
2022-12-26T02:02:17.684Z,17.20
2022-12-26T02:05:07.982Z,18.27
2022-12-26T02:07:46.196Z,17.00
2022-12-26T02:10:23.366Z,16.85
2022-12-26T02:13:00.362Z,17.50
2022-12-26T02:15:35.399Z,16.92
2022-12-26T02:24:35.381Z,17.23
2022-12-26T02:27:19.528Z,17.25
2022-12-26T02:30:22.594Z,17.38
2022-12-26T02:33:17.445Z,17.20
2022-12-26T02:36:21.431Z,16.50
2022-12-26T02:39:44.831Z,16.30
2022-12-26T02:42:28.325Z,16.90
2022-12-26T02:45:48.613Z,17.58
2022-12-26T02:48:24.682Z,16.55
2022-12-26T02:51:47.460Z,16.88
2022-12-26T02:54:52.187Z,16.30
2022-12-26T02:58:03.222Z,16.75
2022-12-26T03:00:53.074Z,15.35
2022-12-26T03:03:55.675Z,16.58
2022-12-26T03:06:53.561Z,16.90
2022-12-26T03:09:43.689Z,17.40
2022-12-26T03:13:03.522Z,16.40
2022-12-26T03:16:02.778Z,17.00
2022-12-26T03:18:57.683Z,18.85
2022-12-26T03:21:32.666Z,18.35
2022-12-26T03:24:17.515Z,19.40
2022-12-26T03:26:59.580Z,18.90
2022-12-26T03:29:47.080Z,19.10
2022-12-26T03:32:23.735Z,19.60
2022-12-26T03:34:56.205Z,19.27
2022-12-26T03:37:54.922Z,20.73
2022-12-26T03:41:18.762Z,20.30
2022-12-26T03:44:13.718Z,21.08
2022-12-26T03:47:28.701Z,20.83
2022-12-26T03:50:20.815Z,21.05
2022-12-26T03:53:46.491Z,21.65
2022-12-26T03:56:53.679Z,20.80
2022-12-26T03:59:55.932Z,21.40
2022-12-26T04:02:54.640Z,22.38
2022-12-26T04:05:51.023Z,21.65
2022-12-26T04:08:43.579Z,19.33
2022-12-26T04:11:42.506Z,19.73
2022-12-26T04:15:06.138Z,19.15
2022-12-26T04:18:13.834Z,18.92
2022-12-26T04:21:15.936Z,18.80
2022-12-26T04:24:15.889Z,18.27
2022-12-26T04:27:06.823Z,18.10
2022-12-26T04:30:00.415Z,17.45
2022-12-26T04:33:21.133Z,18.52
2022-12-26T04:39:26.640Z,18.10
2022-12-26T04:42:22.352Z,18.00
2022-12-26T04:44:57.314Z,18.58
2022-12-26T04:47:34.610Z,17.52
2022-12-26T04:50:13.497Z,17.45
2022-12-26T04:53:10.064Z,15.52
2022-12-26T04:55:44.908Z,17.48
2022-12-26T04:58:18.347Z,19.05
2022-12-26T05:00:54.508Z,17.33
2022-12-26T05:03:51.194Z,18.58
2022-12-26T05:06:46.736Z,17.85
2022-12-26T05:09:40.032Z,18.40
2022-12-26T05:12:16.620Z,18.60
2022-12-26T05:14:47.414Z,18.48
2022-12-26T05:17:41.856Z,18.13
2022-12-26T05:20:37.435Z,18.08
2022-12-26T05:23:30.860Z,18.70
2022-12-26T05:26:25.579Z,18.23
2022-12-26T05:29:17.970Z,18.98
2022-12-26T05:32:01.248Z,19.77
2022-12-26T05:34:35.648Z,20.00
2022-12-26T05:37:07.906Z,21.67
2022-12-26T05:39:42.709Z,19.70
2022-12-26T05:42:15.732Z,21.80
2022-12-26T05:44:53.584Z,23.17
2022-12-26T05:47:27.553Z,22.25
2022-12-26T05:50:06.960Z,22.65
2022-12-26T05:55:46.027Z,21.92
2022-12-26T05:58:20.559Z,21.27
2022-12-26T06:00:54.672Z,23.77
2022-12-26T06:03:28.570Z,22.80
2022-12-26T06:05:58.080Z,23.80
2022-12-26T06:08:41.621Z,22.83
2022-12-26T06:11:15.557Z,21.73
2022-12-26T06:13:52.291Z,21.05
2022-12-26T06:16:20.514Z,22.23
2022-12-26T06:18:57.155Z,22.35
2022-12-26T06:21:31.828Z,22.75
2022-12-26T06:24:08.649Z,21.65
2022-12-26T06:26:39.081Z,21.73
2022-12-26T06:29:16.745Z,22.42
2022-12-26T06:31:48.021Z,22.77
2022-12-26T06:34:25.706Z,22.80
2022-12-26T06:36:56.583Z,22.60
2022-12-26T06:39:35.354Z,22.67
2022-12-26T06:42:14.920Z,22.77
2022-12-26T06:44:45.157Z,22.13
2022-12-26T06:47:19.898Z,21.90
2022-12-26T06:49:57.880Z,22.33
2022-12-26T06:52:41.643Z,19.77
2022-12-26T06:55:09.456Z,21.50
2022-12-26T06:57:48.956Z,20.35
2022-12-26T07:00:23.658Z,21.17
2022-12-26T07:03:07.782Z,20.10
2022-12-26T07:05:42.100Z,20.30
2022-12-26T07:08:21.966Z,18.10
2022-12-26T07:10:49.537Z,19.73
2022-12-26T07:13:24.452Z,18.50
2022-12-26T07:15:58.008Z,18.67
2022-12-26T07:18:32.729Z,17.77
2022-12-26T07:21:03.482Z,16.17
2022-12-26T07:23:38.581Z,16.00
2022-12-26T07:26:09.441Z,15.10
2022-12-26T07:37:42.776Z,12.45
2022-12-26T07:43:04.350Z,11.30
2022-12-26T07:48:37.638Z,9.15
2022-12-26T07:54:57.773Z,9.98
2022-12-26T07:57:48.747Z,9.50
2022-12-26T08:05:58.337Z,8.40
2022-12-26T08:08:35.894Z,10.23
2022-12-26T08:11:08.241Z,9.73
2022-12-26T08:13:42.464Z,9.23
2022-12-26T08:18:58.151Z,9.73
2022-12-26T08:21:28.029Z,9.73
2022-12-26T08:24:05.724Z,9.57
2022-12-26T08:26:37.721Z,8.88
2022-12-26T08:35:27.368Z,9.23
2022-12-26T08:40:43.546Z,9.07
2022-12-26T08:53:09.086Z,8.90
2022-12-26T08:59:11.873Z,8.68
2022-12-26T09:10:49.831Z,7.50
2022-12-26T09:13:39.551Z,7.38
2022-12-26T09:16:17.345Z,7.47
2022-12-26T09:24:44.022Z,5.90
2022-12-26T09:27:15.061Z,5.70
2022-12-26T09:36:14.495Z,5.28
2022-12-26T09:38:50.866Z,5.25
2022-12-26T09:42:00.638Z,4.00
2022-12-26T09:44:49.913Z,4.18
2022-12-26T09:50:23.925Z,3.70
2022-12-26T09:53:20.554Z,3.20
2022-12-26T09:56:37.029Z,4.43
2022-12-26T10:01:55.857Z,3.78
2022-12-26T10:07:38.191Z,3.15
2022-12-26T10:10:29.005Z,4.22
2022-12-26T10:16:54.829Z,7.68
2022-12-26T10:40:29.565Z,3.70
2022-12-26T10:43:03.905Z,3.40
2022-12-26T10:49:06.082Z,3.22
2022-12-26T10:58:17.467Z,3.92
2022-12-26T11:13:08.621Z,3.30
2022-12-26T11:15:41.656Z,2.75
2022-12-26T11:43:12.032Z,1.80
2022-12-26T11:53:03.970Z,1.70
2022-12-26T11:55:56.534Z,1.63
2022-12-26T12:02:43.732Z,1.83
2022-12-26T12:05:23.546Z,1.90
2022-12-26T12:08:21.724Z,1.77
2022-12-26T12:11:32.627Z,1.40
2022-12-26T12:17:25.611Z,1.90
2022-12-26T12:20:39.552Z,1.50
2022-12-26T12:23:46.024Z,1.73
2022-12-26T12:26:28.701Z,1.40
2022-12-26T12:29:17.469Z,1.30
2022-12-26T12:32:18.572Z,1.50
2022-12-26T12:35:14.621Z,1.63
2022-12-26T12:38:00.759Z,1.50
2022-12-26T12:40:52.861Z,1.85
2022-12-26T12:43:52.240Z,1.97
2022-12-26T12:53:48.586Z,1.23
2022-12-26T12:57:06.608Z,1.40
2022-12-26T12:59:57.120Z,1.20
2022-12-26T13:02:41.658Z,1.20
2022-12-26T13:05:26.702Z,1.20
2022-12-26T13:11:37.603Z,1.40
2022-12-26T13:14:20.540Z,1.25
2022-12-26T13:26:33.641Z,1.40
2022-12-26T13:29:48.928Z,1.20
2022-12-26T13:32:28.824Z,1.17
2022-12-26T13:35:14.996Z,1.43
2022-12-26T13:37:42.006Z,1.23
2022-12-26T13:40:17.655Z,1.60
2022-12-26T13:43:25.002Z,1.30
2022-12-26T13:46:04.768Z,1.65
2022-12-26T13:51:59.128Z,2.03
2022-12-26T13:54:30.024Z,1.50
2022-12-26T13:57:36.993Z,1.20
2022-12-26T14:00:43.289Z,1.37
2022-12-26T14:03:50.913Z,1.50
2022-12-26T14:07:03.642Z,1.37
2022-12-26T14:09:34.715Z,1.50
2022-12-26T14:12:17.731Z,1.33
2022-12-26T14:18:56.676Z,1.50
2022-12-26T14:21:35.427Z,1.60
2022-12-26T14:24:17.833Z,1.60
2022-12-26T14:27:12.901Z,2.70
2022-12-26T14:30:25.737Z,1.77
2022-12-26T14:33:17.063Z,2.00
2022-12-26T14:36:34.687Z,3.00
2022-12-26T14:42:31.679Z,2.23
2022-12-26T14:45:09.667Z,2.23
2022-12-26T14:47:55.619Z,3.63
2022-12-26T14:50:43.503Z,2.60
2022-12-26T14:56:22.734Z,2.23
2022-12-26T14:59:27.648Z,1.93
2022-12-26T15:02:27.907Z,2.37
2022-12-26T15:05:19.694Z,2.23
2022-12-26T15:08:20.079Z,1.60
2022-12-26T15:11:15.088Z,1.97
2022-12-26T15:14:20.682Z,2.10
2022-12-26T15:17:18.923Z,2.80
2022-12-26T15:20:13.724Z,2.30
2022-12-26T15:23:11.274Z,1.90
2022-12-26T15:25:51.115Z,2.00
2022-12-26T15:28:41.792Z,1.40
2022-12-26T15:31:37.233Z,1.90
2022-12-26T15:37:24.704Z,2.53
2022-12-26T15:40:08.843Z,2.20
2022-12-26T15:42:54.366Z,2.20
2022-12-26T15:48:22.511Z,1.97
2022-12-26T15:51:53.862Z,1.87
2022-12-26T15:55:05.962Z,2.30
2022-12-26T15:57:53.052Z,2.20
2022-12-26T16:00:32.785Z,2.30
2022-12-26T16:03:37.318Z,2.90
2022-12-26T16:06:51.736Z,2.27
2022-12-26T16:09:49.856Z,2.80
2022-12-26T16:12:37.615Z,3.17
2022-12-26T16:15:18.489Z,3.43
2022-12-26T16:17:49.139Z,2.73
2022-12-26T16:20:54.990Z,2.20
2022-12-26T16:23:30.161Z,2.10
2022-12-26T16:26:07.768Z,1.80
2022-12-26T16:28:42.146Z,2.27
2022-12-26T16:31:16.800Z,2.40
2022-12-26T16:33:55.003Z,2.60
2022-12-26T16:36:35.786Z,2.47
2022-12-26T16:39:17.698Z,2.23
2022-12-26T16:44:47.826Z,2.10
2022-12-26T16:47:30.320Z,1.90
2022-12-26T16:49:58.882Z,2.13
2022-12-26T16:52:49.758Z,2.20
2022-12-26T16:55:30.588Z,1.63
2022-12-26T16:58:30.720Z,2.30
2022-12-26T17:14:45.135Z,2.00
2022-12-26T17:17:30.675Z,1.77
2022-12-26T17:26:37.923Z,2.40
2022-12-26T17:29:12.973Z,1.57
2022-12-26T17:31:49.226Z,1.97
2022-12-26T17:37:42.983Z,2.13
2022-12-26T17:40:23.223Z,2.63
2022-12-26T17:43:01.859Z,2.33
2022-12-26T17:45:49.255Z,2.77
2022-12-26T17:48:28.000Z,2.30
2022-12-26T17:51:04.928Z,2.60
2022-12-26T17:53:44.345Z,2.10
2022-12-26T17:56:39.583Z,2.07
2022-12-26T17:59:25.673Z,2.37
2022-12-26T18:02:07.014Z,2.33
2022-12-26T18:05:06.899Z,2.70
2022-12-26T18:07:43.665Z,2.87
2022-12-26T18:10:25.097Z,1.93
2022-12-26T18:13:00.059Z,2.57
2022-12-26T18:15:31.376Z,2.93
2022-12-26T18:18:10.902Z,2.50
2022-12-26T18:20:38.847Z,2.53
2022-12-26T18:23:18.491Z,2.97
2022-12-26T18:28:38.593Z,2.80
2022-12-26T18:31:14.874Z,2.93
2022-12-26T18:33:54.014Z,3.00
2022-12-26T18:36:28.183Z,2.77
2022-12-26T18:44:30.179Z,3.27
2022-12-26T18:49:46.953Z,3.83
2022-12-26T18:52:18.593Z,3.57
2022-12-26T18:54:55.097Z,3.47
2022-12-26T19:01:08.872Z,5.00
2022-12-26T19:03:45.323Z,3.73
2022-12-26T19:06:25.151Z,2.77
2022-12-26T19:09:11.511Z,2.27
2022-12-26T19:14:36.363Z,2.70
2022-12-26T19:17:29.476Z,2.60
2022-12-26T19:20:02.024Z,2.87
2022-12-26T19:25:22.106Z,2.80
2022-12-26T19:28:05.085Z,2.70
2022-12-26T19:30:42.523Z,3.00
2022-12-26T19:33:19.105Z,2.63
2022-12-26T19:35:47.605Z,3.07
2022-12-26T19:38:22.162Z,2.47
2022-12-26T19:40:51.722Z,2.80
2022-12-26T19:43:32.396Z,2.10
2022-12-26T19:46:05.583Z,2.30
2022-12-26T19:48:42.846Z,2.40
2022-12-26T19:51:15.463Z,2.40
2022-12-26T19:56:35.034Z,2.80
2022-12-26T19:59:18.540Z,3.23
2022-12-26T20:01:49.212Z,2.00
2022-12-26T20:04:34.152Z,2.47
2022-12-26T20:07:03.657Z,3.03
2022-12-26T20:09:41.227Z,2.70
2022-12-26T20:12:12.571Z,3.13
2022-12-26T20:14:52.521Z,2.30
2022-12-26T20:17:23.033Z,2.07
2022-12-26T20:22:52.846Z,2.73
2022-12-26T20:28:07.181Z,2.87
2022-12-26T20:45:52.661Z,2.90
2022-12-26T20:48:27.240Z,2.30
2022-12-26T20:51:10.055Z,2.63
2022-12-26T20:53:42.210Z,2.40
2022-12-26T20:59:16.896Z,2.70
2022-12-26T21:02:08.043Z,2.50
2022-12-26T21:04:58.423Z,2.57
2022-12-26T21:07:39.487Z,2.40
2022-12-26T21:16:19.539Z,2.37
2022-12-26T21:18:55.583Z,2.83
2022-12-26T21:21:42.966Z,2.17
2022-12-26T21:27:27.471Z,2.77
2022-12-26T21:30:07.034Z,2.40
2022-12-26T21:33:01.114Z,2.70
2022-12-26T21:35:50.232Z,2.40
2022-12-26T21:38:33.989Z,2.50
2022-12-26T21:43:55.019Z,2.00
2022-12-26T21:46:35.012Z,2.50
2022-12-26T21:49:06.316Z,3.03
2022-12-26T22:01:43.760Z,2.20
2022-12-26T22:08:05.912Z,3.30
2022-12-26T22:23:35.622Z,1.97
2022-12-26T22:26:12.067Z,2.60
2022-12-26T22:28:50.929Z,2.40
2022-12-26T22:31:23.445Z,2.63
2022-12-26T22:34:20.399Z,2.40
2022-12-26T22:48:34.661Z,2.20
2022-12-26T22:53:56.000Z,2.20
2022-12-26T23:02:00.429Z,2.63
2022-12-26T23:10:47.447Z,2.60
2022-12-26T23:20:15.384Z,2.90
2022-12-26T23:29:49.062Z,3.17
2022-12-26T23:37:48.082Z,3.30
2022-12-26T23:40:26.204Z,3.57
2022-12-26T23:52:24.175Z,3.20
